createdAt,value
2022-08-24T00:00:37.094Z,90.30
2022-08-24T00:05:38.885Z,90.40
2022-08-24T00:10:41.497Z,90.70
2022-08-24T00:15:44.286Z,90.90
2022-08-24T00:20:45.953Z,91.20
2022-08-24T00:25:48.110Z,91.30
2022-08-24T00:30:50.025Z,91.50
2022-08-24T00:35:51.689Z,91.70
2022-08-24T00:40:53.456Z,92.00
2022-08-24T00:46:10.754Z,92.30
2022-08-24T00:51:18.227Z,92.50
2022-08-24T00:56:26.581Z,92.80
2022-08-24T01:01:30.050Z,93.10
2022-08-24T01:06:33.384Z,93.40
2022-08-24T01:11:35.567Z,93.70
2022-08-24T01:16:57.148Z,94.10
2022-08-24T01:22:40.738Z,94.50
2022-08-24T01:27:43.930Z,95.00
2022-08-24T01:32:55.891Z,95.30
2022-08-24T01:38:02.179Z,95.50
2022-08-24T01:43:07.228Z,96.10
2022-08-24T01:48:08.983Z,96.40
2022-08-24T01:53:10.746Z,96.80
2022-08-24T01:58:13.139Z,97.10
2022-08-24T02:03:14.911Z,97.70
2022-08-24T02:08:16.838Z,97.80
2022-08-24T02:13:18.718Z,98.20
2022-08-24T02:18:20.450Z,98.50
2022-08-24T02:23:22.421Z,98.90
2022-08-24T02:28:24.783Z,99.20
2022-08-24T02:33:26.712Z,99.70
2022-08-24T02:38:28.603Z,99.90
2022-08-24T02:43:30.307Z,99.90
2022-08-24T02:48:32.504Z,99.90
2022-08-24T02:53:34.167Z,99.90
2022-08-24T02:58:35.816Z,99.90
2022-08-24T03:03:37.656Z,99.90
2022-08-24T03:08:39.711Z,99.90
2022-08-24T03:13:41.617Z,99.90
2022-08-24T03:18:43.848Z,99.90
2022-08-24T03:23:46.141Z,99.90
2022-08-24T03:28:47.851Z,99.90
2022-08-24T03:33:51.389Z,99.90
2022-08-24T03:38:53.073Z,99.90
2022-08-24T03:43:56.355Z,99.90
2022-08-24T03:48:59.221Z,99.90
2022-08-24T03:54:01.682Z,99.90
2022-08-24T03:59:04.457Z,99.90
2022-08-24T04:04:06.433Z,99.90
2022-08-24T04:09:08.072Z,99.90
2022-08-24T04:14:26.521Z,99.90
2022-08-24T04:19:29.546Z,99.90
2022-08-24T04:24:31.936Z,99.90
2022-08-24T04:29:34.058Z,99.90
2022-08-24T04:34:36.346Z,99.90
2022-08-24T04:39:38.292Z,99.90
2022-08-24T04:44:41.370Z,99.90
2022-08-24T04:49:43.018Z,99.90
2022-08-24T04:54:44.651Z,99.90
2022-08-24T04:59:46.906Z,99.90
2022-08-24T05:04:48.617Z,99.90
2022-08-24T05:09:52.352Z,99.90
2022-08-24T05:14:54.371Z,99.90
2022-08-24T05:19:58.396Z,99.90
2022-08-24T05:25:00.177Z,99.90
2022-08-24T05:30:03.132Z,99.90
2022-08-24T05:35:06.521Z,99.90
2022-08-24T05:40:11.471Z,99.90
2022-08-24T05:45:13.205Z,99.90
2022-08-24T05:50:14.925Z,99.90
2022-08-24T05:55:16.646Z,99.90
2022-08-24T06:00:18.584Z,99.90
2022-08-24T06:05:20.249Z,99.90
2022-08-24T06:10:36.445Z,99.90
2022-08-24T06:15:40.292Z,99.90
2022-08-24T06:20:42.807Z,99.90
2022-08-24T06:26:06.551Z,99.90
2022-08-24T06:31:08.389Z,99.90
2022-08-24T06:36:10.346Z,99.90
2022-08-24T06:41:12.149Z,99.90
2022-08-24T06:46:14.645Z,99.90
2022-08-24T06:51:18.643Z,99.90
2022-08-24T06:56:20.288Z,99.90
2022-08-24T07:01:25.992Z,99.90
2022-08-24T07:06:28.556Z,99.90
2022-08-24T07:11:30.402Z,99.90
2022-08-24T07:16:32.298Z,99.90
2022-08-24T07:21:34.311Z,99.90
2022-08-24T07:26:37.654Z,99.90
2022-08-24T07:31:40.156Z,99.90
2022-08-24T07:36:44.501Z,99.90
2022-08-24T07:42:10.906Z,99.90
2022-08-24T07:47:34.381Z,99.90
2022-08-24T07:52:29.733Z,99.90
2022-08-24T07:57:31.718Z,99.90
2022-08-24T08:02:36.099Z,99.90
2022-08-24T08:07:38.215Z,99.90
2022-08-24T08:12:40.279Z,99.90
2022-08-24T08:17:41.902Z,99.90
2022-08-24T08:23:02.355Z,99.50
2022-08-24T08:28:18.473Z,99.60
2022-08-24T08:33:27.945Z,99.50
2022-08-24T08:38:29.856Z,99.00
2022-08-24T08:43:42.578Z,98.00
2022-08-24T08:49:02.731Z,98.20
2022-08-24T08:54:20.885Z,97.70
2022-08-24T08:59:40.816Z,96.70
2022-08-24T09:05:00.253Z,97.00
2022-08-24T09:10:08.368Z,96.10
2022-08-24T09:15:42.414Z,95.30
2022-08-24T09:21:16.374Z,95.80
2022-08-24T09:26:23.759Z,94.60
2022-08-24T09:31:48.043Z,94.50
2022-08-24T09:36:55.051Z,92.90
2022-08-24T09:42:18.265Z,93.40
2022-08-24T09:47:34.817Z,92.20
2022-08-24T09:52:57.554Z,92.50
2022-08-24T09:58:13.591Z,91.40
2022-08-24T10:03:52.720Z,90.60
2022-08-24T10:09:20.660Z,90.90
2022-08-24T10:14:31.936Z,90.10
2022-08-24T10:20:01.199Z,89.10
2022-08-24T10:25:23.621Z,88.80
2022-08-24T10:30:47.790Z,87.50
2022-08-24T10:36:13.184Z,83.90
2022-08-24T10:41:30.498Z,80.70
2022-08-24T10:46:59.654Z,76.50
2022-08-24T10:52:39.966Z,74.30
2022-08-24T10:58:19.068Z,73.80
2022-08-24T11:03:28.453Z,74.40
2022-08-24T11:08:34.847Z,71.20
2022-08-24T11:13:49.163Z,71.20
2022-08-24T11:18:56.114Z,70.50
2022-08-24T11:24:03.384Z,69.60
2022-08-24T11:29:05.137Z,66.20
2022-08-24T11:34:15.588Z,68.40
2022-08-24T11:39:35.530Z,67.00
2022-08-24T11:44:49.880Z,66.90
2022-08-24T11:49:57.376Z,66.90
2022-08-24T11:55:14.597Z,66.30
2022-08-24T12:00:23.464Z,62.50
2022-08-24T12:05:44.535Z,63.00
2022-08-24T12:11:09.139Z,62.70
2022-08-24T12:16:24.988Z,62.70
2022-08-24T12:21:32.122Z,64.10
2022-08-24T12:26:50.291Z,62.90
2022-08-24T12:32:12.534Z,63.70
2022-08-24T12:37:38.475Z,63.40
2022-08-24T12:42:52.342Z,64.70
2022-08-24T12:48:08.230Z,63.10
2022-08-24T12:53:13.926Z,62.80
2022-08-24T12:58:54.504Z,65.40
2022-08-24T13:04:30.322Z,64.60
2022-08-24T13:09:35.603Z,63.80
2022-08-24T13:14:37.271Z,62.90
2022-08-24T13:19:45.407Z,62.40
2022-08-24T13:24:54.268Z,62.40
2022-08-24T13:30:19.345Z,64.20
2022-08-24T13:35:57.011Z,61.70
2022-08-24T13:41:06.386Z,59.70
2022-08-24T13:46:32.182Z,60.20
2022-08-24T13:51:42.236Z,59.80
2022-08-24T13:57:13.936Z,59.00
2022-08-24T14:02:18.317Z,59.30
2022-08-24T14:07:33.881Z,57.70
2022-08-24T14:13:12.858Z,57.50
2022-08-24T14:18:37.740Z,56.40
2022-08-24T14:23:52.398Z,56.20
2022-08-24T14:28:54.154Z,57.60
2022-08-24T14:34:24.944Z,57.40
2022-08-24T14:39:38.665Z,56.20
2022-08-24T14:45:02.382Z,56.30
2022-08-24T14:50:12.865Z,56.60
2022-08-24T14:55:34.378Z,56.00
2022-08-24T15:01:03.546Z,55.30
2022-08-24T15:06:36.919Z,55.50
2022-08-24T15:11:41.269Z,54.70
2022-08-24T15:16:54.313Z,55.00
2022-08-24T15:22:13.135Z,54.80
2022-08-24T15:27:23.179Z,55.70
2022-08-24T15:32:40.276Z,54.70
2022-08-24T15:37:41.927Z,55.70
2022-08-24T15:42:44.134Z,55.10
2022-08-24T15:47:51.925Z,56.30
2022-08-24T15:53:01.634Z,55.10
2022-08-24T15:58:32.156Z,53.40
2022-08-24T16:04:11.183Z,55.00
2022-08-24T16:09:35.511Z,55.30
2022-08-24T16:14:46.982Z,55.50
2022-08-24T16:19:53.269Z,55.10
2022-08-24T16:25:17.780Z,55.80
2022-08-24T16:30:36.459Z,55.10
2022-08-24T16:35:38.755Z,55.10
2022-08-24T16:40:40.615Z,55.50
2022-08-24T16:45:43.228Z,55.60
2022-08-24T16:50:49.277Z,55.60
2022-08-24T16:55:53.382Z,55.80
2022-08-24T17:00:55.079Z,55.90
2022-08-24T17:05:57.621Z,55.60
2022-08-24T17:10:59.599Z,55.60
2022-08-24T17:16:02.236Z,56.00
2022-08-24T17:21:05.868Z,56.20
2022-08-24T17:26:20.195Z,56.50
2022-08-24T17:31:25.972Z,56.50
2022-08-24T17:36:31.164Z,57.20
2022-08-24T17:41:34.685Z,58.20
2022-08-24T17:46:37.122Z,58.00
2022-08-24T17:51:38.915Z,58.50
2022-08-24T17:56:45.016Z,59.20
2022-08-24T18:01:48.034Z,59.70
2022-08-24T18:06:51.274Z,60.50
2022-08-24T18:11:52.984Z,60.30
2022-08-24T18:16:57.473Z,60.40
2022-08-24T18:22:01.483Z,60.70
2022-08-24T18:27:19.297Z,61.20
2022-08-24T18:32:20.964Z,61.10
2022-08-24T18:37:23.831Z,61.20
2022-08-24T18:42:27.297Z,62.60
2022-08-24T18:47:29.027Z,62.60
2022-08-24T18:52:31.580Z,62.70
2022-08-24T18:57:33.518Z,63.20
2022-08-24T19:02:36.275Z,64.10
2022-08-24T19:07:41.332Z,65.50
2022-08-24T19:12:47.161Z,65.40
2022-08-24T19:17:48.905Z,65.80
2022-08-24T19:22:51.274Z,65.90
2022-08-24T19:27:55.124Z,66.40
2022-08-24T19:32:57.736Z,66.40
2022-08-24T19:37:59.473Z,66.60
2022-08-24T19:43:02.598Z,66.60
2022-08-24T19:48:04.776Z,68.30
2022-08-24T19:53:06.889Z,68.10
2022-08-24T19:58:23.664Z,68.80
2022-08-24T20:03:25.491Z,69.20
2022-08-24T20:08:27.150Z,69.90
2022-08-24T20:13:28.957Z,70.20
2022-08-24T20:18:32.617Z,71.20
2022-08-24T20:23:34.366Z,71.40
2022-08-24T20:28:46.699Z,71.60
2022-08-24T20:33:48.634Z,72.00
2022-08-24T20:38:52.021Z,72.20
2022-08-24T20:43:55.006Z,72.50
2022-08-24T20:48:57.919Z,73.10
2022-08-24T20:54:00.910Z,74.10
2022-08-24T20:59:05.866Z,73.80
2022-08-24T21:04:08.527Z,74.20
2022-08-24T21:09:12.846Z,74.80
2022-08-24T21:14:16.260Z,74.80
2022-08-24T21:19:18.046Z,75.40
2022-08-24T21:24:19.772Z,76.10
2022-08-24T21:29:21.471Z,76.80
2022-08-24T21:34:41.535Z,77.90
2022-08-24T21:39:44.267Z,77.80
2022-08-24T21:44:55.859Z,77.30
2022-08-24T21:49:58.087Z,77.80
2022-08-24T21:54:59.748Z,78.70
2022-08-24T22:00:02.533Z,79.70
2022-08-24T22:05:04.948Z,79.80
2022-08-24T22:10:08.759Z,80.30
2022-08-24T22:15:13.890Z,80.40
2022-08-24T22:20:21.605Z,80.60
2022-08-24T22:25:24.883Z,81.00
2022-08-24T22:30:26.543Z,81.00
2022-08-24T22:35:28.224Z,81.40
2022-08-24T22:40:32.140Z,82.10
2022-08-24T22:45:33.873Z,82.30
2022-08-24T22:50:35.999Z,82.70
2022-08-24T22:55:37.654Z,83.20
2022-08-24T23:00:40.464Z,83.10
2022-08-24T23:05:42.506Z,83.70
2022-08-24T23:10:45.397Z,83.70
2022-08-24T23:15:48.698Z,84.20
2022-08-24T23:20:50.838Z,84.70
2022-08-24T23:25:52.459Z,85.30
2022-08-24T23:30:54.253Z,85.80
2022-08-24T23:35:55.916Z,86.40
2022-08-24T23:41:09.079Z,86.80
2022-08-24T23:46:12.093Z,87.40
2022-08-24T23:51:19.690Z,88.10
2022-08-24T23:56:31.783Z,88.70
